Grosse Ile, MI

4:00 AM EDT on October 21, 2017 (GMT -0400)
Grosse Ile Municipal

Weather History for KONZ - August, 2014

Change the Weather History Date:

Tuesday, August 26, 2014

  Actual Average (KDTW) Record (KDTW)
Temperature  
Mean Temperature 79 °F -  
Max Temperature 87 °F 82 °F 96 °F (1953)
Min Temperature 71 °F 60 °F 47 °F (1984)
Cooling Degree Days 14    
Growing Degree Days 29 (Base 50)    
Moisture  
Dew Point 71 °F    
Average Humidity 83    
Maximum Humidity 94    
Minimum Humidity 62    
Precipitation  
Precipitation 0.19 in - - ()
Sea Level Pressure  
Sea Level Pressure 30.05 in    
Wind  
Wind Speed 5 mph (SSW)    
Max Wind Speed 22 mph    
Max Gust Speed 38 mph    
Visibility 10 miles    
Events Rain    
Averages and records for this station are not official NWS values.
T = Trace of Precipitation, MM = Missing Value Source: NWS Daily Summary

Daily Weather History Graph

Daily Weather History Graph

Search for Another Location

Airport or City:

Trip Planner

Search our weather history database for the weather conditions in past years. The results will help you decide how hot, cold, wet, or windy it might be!

Date:

Astronomy

Aug. 26, 2014 Rise Set
Actual Time 6:51 AM EDT 8:16 PM EDT
Civil Twilight 6:22 AM EDT 8:45 PM EDT
Nautical Twilight 5:47 AM EDT 9:20 PM EDT
Astronomical Twilight 5:10 AM EDT 9:57 PM EDT
Moon 7:53 AM EDT (8/26) 8:34 PM EDT (8/26)
Length of Visible Light 14h 22m
Length of Day
13h 24m
New Moon, 1% of the Moon is Illuminated
Aug 26
New Moon
Sep 2
First Quarter
Sep 8
Full
Sep 15
Last Quarter
Sep 24
New

Hourly Weather History & Observations

Time (EDT) Temp. Heat Index Dew Point Humidity Pressure Visibility Wind Dir Wind Speed Gust Speed Precip Events Conditions
12:14 AM 75.2 °F - 69.8 °F 83% 30.04 in 10.0 mi SE 4.6 mph - N/A   Clear
12:34 AM 75.2 °F - 69.8 °F 83% 30.05 in 10.0 mi Calm Calm - N/A   Clear
12:54 AM 75.2 °F - 71.6 °F 89% 30.05 in 10.0 mi SSE 4.6 mph - N/A   Clear
1:14 AM 75.2 °F - 71.6 °F 89% 30.04 in 10.0 mi SSE 6.9 mph - N/A   Clear
1:34 AM 75.2 °F - 71.6 °F 89% 30.04 in 10.0 mi South 8.1 mph - N/A   Clear
1:54 AM 75.2 °F - 71.6 °F 89% 30.04 in 10.0 mi SSW 5.8 mph - N/A   Clear
2:14 AM 75.2 °F - 71.6 °F 89% 30.04 in 10.0 mi SSW 6.9 mph - N/A   Clear
2:34 AM 75.2 °F - 71.6 °F 89% 30.04 in 10.0 mi SSW 5.8 mph - N/A   Clear
2:54 AM 75.2 °F - 71.6 °F 89% 30.04 in 10.0 mi SSW 4.6 mph - N/A   Clear
3:14 AM 75.2 °F - 71.6 °F 89% 30.04 in 10.0 mi South 3.5 mph - N/A   Clear
3:34 AM 75.2 °F - 71.6 °F 89% 30.04 in 7.0 mi South 5.8 mph - N/A   Clear
3:54 AM 75.2 °F - 71.6 °F 89% 30.03 in 10.0 mi South 8.1 mph - N/A   Clear
4:14 AM 75.2 °F - 71.6 °F 89% 30.04 in 10.0 mi SSW 5.8 mph - N/A   Clear
4:34 AM 75.2 °F - 71.6 °F 89% 30.03 in 10.0 mi SSW 6.9 mph - N/A   Clear
4:53 AM 75.2 °F - 71.6 °F 89% 30.03 in 10.0 mi SSW 5.8 mph - N/A   Clear
5:14 AM 75.2 °F - 71.6 °F 89% 30.03 in 10.0 mi SSW 4.6 mph - N/A   Clear
5:34 AM 73.4 °F - 69.8 °F 88% 30.04 in 10.0 mi SSW 4.6 mph - N/A   Clear
5:54 AM 73.4 °F - 69.8 °F 88% 30.04 in 10.0 mi SSW 4.6 mph - N/A   Clear
6:14 AM 73.4 °F - 69.8 °F 88% 30.04 in 7.0 mi SSW 6.9 mph - N/A   Clear
6:34 AM 73.4 °F - 69.8 °F 88% 30.04 in 7.0 mi SSW 4.6 mph - N/A   Clear
6:54 AM 73.4 °F - 69.8 °F 88% 30.05 in 7.0 mi SSW 3.5 mph - N/A   Clear
7:14 AM 73.4 °F - 69.8 °F 88% 30.06 in 5.0 mi SSW 4.6 mph - N/A   Clear
7:34 AM 73.4 °F - 69.8 °F 88% 30.07 in 7.0 mi WSW 3.5 mph - N/A   Clear
7:54 AM 73.4 °F - 69.8 °F 88% 30.06 in 7.0 mi West 4.6 mph - N/A   Clear
8:14 AM 73.4 °F - 69.8 °F 88% 30.07 in 10.0 mi SW 4.6 mph - N/A   Clear
8:34 AM 75.2 °F - 69.8 °F 83% 30.07 in 10.0 mi Calm Calm - N/A   Scattered Clouds
8:54 AM 75.2 °F - 69.8 °F 83% 30.08 in 10.0 mi South 4.6 mph - N/A   Scattered Clouds
9:14 AM 75.2 °F - 69.8 °F 83% 30.08 in 10.0 mi South 5.8 mph - N/A   Scattered Clouds
9:34 AM 77.0 °F - 71.6 °F 83% 30.08 in 10.0 mi South 4.6 mph - N/A   Clear
9:54 AM 78.8 °F - 69.8 °F 74% 30.08 in 10.0 mi SW 5.8 mph - N/A   Clear
10:14 AM 78.8 °F - 69.8 °F 74% 30.09 in 10.0 mi SW 4.6 mph - N/A   Scattered Clouds
10:34 AM 80.6 °F 83.9 °F 69.8 °F 70% 30.09 in 10.0 mi WSW 5.8 mph - N/A   Mostly Cloudy
10:54 AM 80.6 °F 83.9 °F 69.8 °F 70% 30.09 in 10.0 mi WSW 4.6 mph - N/A   Scattered Clouds
11:13 AM 80.6 °F 84.6 °F 71.6 °F 74% 30.09 in 10.0 mi South 5.8 mph - N/A   Scattered Clouds
11:34 AM 82.4 °F 87.2 °F 71.6 °F 70% 30.09 in 10.0 mi SSW 8.1 mph - N/A   Clear
11:54 AM 82.4 °F 87.2 °F 71.6 °F 70% 30.09 in 10.0 mi SSW 4.6 mph - N/A   Clear
12:14 PM 84.2 °F 89.6 °F 71.6 °F 66% 30.08 in 10.0 mi Calm Calm - N/A   Clear
12:34 PM 84.2 °F 89.6 °F 71.6 °F 66% 30.07 in 10.0 mi South 4.6 mph - N/A   Clear
12:53 PM 82.4 °F 88.2 °F 73.4 °F 74% 30.07 in 10.0 mi SSE 6.9 mph - N/A   Clear
1:14 PM 82.4 °F 89.5 °F 75.2 °F 79% 30.06 in 10.0 mi South 6.9 mph - N/A   Clear
1:34 PM 82.4 °F 88.2 °F 73.4 °F 74% 30.06 in 10.0 mi SSE 8.1 mph - N/A   Clear
1:54 PM 82.4 °F 88.2 °F 73.4 °F 74% 30.06 in 10.0 mi South 11.5 mph - N/A   Clear
2:14 PM 82.4 °F 88.2 °F 73.4 °F 74% 30.06 in 10.0 mi South 11.5 mph - N/A   Clear
2:34 PM 82.4 °F 88.2 °F 73.4 °F 74% 30.06 in 10.0 mi South 11.5 mph - N/A   Clear
2:54 PM 82.4 °F 88.2 °F 73.4 °F 74% 30.04 in 10.0 mi South 12.7 mph - N/A   Clear
3:14 PM 82.4 °F 88.2 °F 73.4 °F 74% 30.04 in 10.0 mi South 11.5 mph - N/A   Clear
3:34 PM 82.4 °F 88.2 °F 73.4 °F 74% 30.03 in 10.0 mi South 9.2 mph - N/A   Clear
3:54 PM 84.2 °F 92.3 °F 75.2 °F 74% 30.03 in 10.0 mi South 9.2 mph - N/A   Clear
4:14 PM 84.2 °F 92.3 °F 75.2 °F 74% 30.03 in 10.0 mi South 9.2 mph - N/A   Scattered Clouds
4:34 PM 87.8 °F 95.6 °F 73.4 °F 62% 30.03 in 10.0 mi SW 9.2 mph - N/A   Mostly Cloudy
5:14 PM 80.6 °F 83.2 °F 68.0 °F 65% 30.07 in 10.0 mi NW 21.9 mph 38.0 mph N/A   Mostly Cloudy
5:34 PM 73.4 °F - 69.8 °F 88% 30.06 in 5.0 mi NNW 12.7 mph 28.8 mph 0.16 in Rain Heavy Rain
5:54 PM 73.4 °F - 69.8 °F 88% 30.03 in 10.0 mi NW 4.6 mph - 0.18 in   Scattered Clouds
6:14 PM 73.4 °F - 69.8 °F 88% 30.03 in 10.0 mi Calm Calm - N/A Rain Light Rain
6:33 PM 73.4 °F - 69.8 °F 88% 30.04 in 10.0 mi ENE 9.2 mph - N/A Rain Light Rain
6:54 PM 73.4 °F - 69.8 °F 88% 30.04 in 10.0 mi ENE 5.8 mph - N/A   Clear
7:14 PM 73.4 °F - 69.8 °F 88% 30.03 in 10.0 mi Calm Calm - 0.01 in   Clear
7:34 PM 73.4 °F - 68.0 °F 83% 30.03 in 10.0 mi Calm Calm - 0.01 in   Clear
7:54 PM 71.6 °F - 68.0 °F 88% 30.03 in 10.0 mi Calm Calm - 0.01 in   Clear
8:14 PM 71.6 °F - 68.0 °F 88% 30.03 in 10.0 mi Calm Calm - N/A   Clear
8:34 PM 71.6 °F - 68.0 °F 88% 30.03 in 10.0 mi SW 4.6 mph - N/A   Clear
8:53 PM 71.6 °F - 69.8 °F 94% 30.04 in 10.0 mi West 3.5 mph - N/A   Clear
9:14 PM 71.6 °F - 68.0 °F 88% 30.05 in 10.0 mi West 5.8 mph - N/A   Clear
9:33 PM 71.6 °F - 68.0 °F 88% 30.05 in 10.0 mi West 3.5 mph - N/A   Clear
9:54 PM 71.6 °F - 68.0 °F 88% 30.05 in 10.0 mi Calm Calm - N/A   Clear
10:14 PM 71.6 °F - 68.0 °F 88% 30.05 in 10.0 mi SSW 4.6 mph - N/A   Clear
10:33 PM 71.6 °F - 68.0 °F 88% 30.05 in 10.0 mi SSW 3.5 mph - N/A   Clear
10:54 PM 71.6 °F - 68.0 °F 88% 30.05 in 10.0 mi SW 3.5 mph - N/A   Clear
11:14 PM 71.6 °F - 68.0 °F 88% 30.05 in 10.0 mi Calm Calm - N/A   Clear
11:34 PM 71.6 °F - 68.0 °F 88% 30.06 in 10.0 mi West 4.6 mph - N/A   Clear
11:54 PM 71.6 °F - 68.0 °F 88% 30.06 in 10.0 mi NW 4.6 mph - N/A   Scattered Clouds